Time;durP1;ratioP1;P1;durP2;ratioP2;P2;SDS_P1;SDS_P2;PMS_P1;PMS_P2;Temp;Humidity;BMP_temperature;BMP_pressure;BME280_temperature;BME280_humidity;BME280_pressure;Samples;Min_cycle;Max_cycle;Signal;HPM_P1;HPM_P2
2021/04/06 00:01:45;;;;;;;12.35;7.95;;;;;;;2.78;54.61;91684.59;1801839;78;21133;-75
2021/04/06 00:04:16;;;;;;;10.65;7.53;;;;;;;2.77;54.30;91686.52;1806177;78;21628;-77
2021/04/06 00:06:49;;;;;;;12.05;7.75;;;;;;;2.79;54.28;91678.86;1812919;77;21197;-75
2021/04/06 00:09:21;;;;;;;11.97;7.55;;;;;;;2.78;54.30;91677.31;1780225;79;21496;-75
2021/04/06 00:11:48;;;;;;;9.38;7.45;;;;;;;2.78;54.32;91671.94;1812975;77;21062;-76
2021/04/06 00:14:16;;;;;;;11.97;7.92;;;;;;;2.80;54.40;91685.75;1794758;78;21161;-78
2021/04/06 00:16:46;;;;;;;8.75;7.00;;;;;;;2.82;54.64;91690.72;1749357;80;21118;-76
2021/04/06 00:19:17;;;;;;;12.20;7.90;;;;;;;2.80;54.63;91679.63;1768365;79;21113;-77
2021/04/06 00:21:47;;;;;;;11.35;6.95;;;;;;;2.75;54.72;91682.14;1764362;78;21487;-73
2021/04/06 00:24:15;;;;;;;11.20;7.58;;;;;;;2.73;54.82;91679.64;1766971;79;21122;-76
2021/04/06 00:26:50;;;;;;;10.10;7.60;;;;;;;2.71;54.87;91684.61;1741899;79;21625;-76
2021/04/06 00:29:21;;;;;;;11.25;7.80;;;;;;;2.68;54.99;91681.57;1798031;79;21128;-76
2021/04/06 00:31:51;;;;;;;9.90;7.30;;;;;;;2.66;55.43;91674.47;1811454;77;21170;-75
2021/04/06 00:34:20;;;;;;;11.95;7.97;;;;;;;2.66;55.07;91663.73;1815806;78;22064;-74
2021/04/06 00:36:52;;;;;;;10.38;7.75;;;;;;;2.65;55.48;91653.40;1812678;77;21540;-75
2021/04/06 00:39:23;;;;;;;14.15;8.60;;;;;;;2.63;55.65;91648.98;1812821;77;21042;-75
2021/04/06 00:41:51;;;;;;;11.05;8.00;;;;;;;2.59;55.54;91652.25;1813634;79;21135;-75
2021/04/06 00:44:18;;;;;;;10.98;8.73;;;;;;;2.59;55.79;91643.62;1831637;78;21044;-75
2021/04/06 00:46:46;;;;;;;12.73;9.03;;;;;;;2.58;55.75;91644.78;1822410;77;21495;-75
2021/04/06 00:49:14;;;;;;;11.00;8.25;;;;;;;2.62;55.42;91640.75;1770719;79;21156;-75
2021/04/06 00:51:42;;;;;;;14.98;9.48;;;;;;;2.63;55.32;91643.61;1792642;79;21116;-77
2021/04/06 00:54:13;;;;;;;11.93;7.90;;;;;;;2.64;55.50;91630.41;1814828;79;21216;-75
2021/04/06 00:56:42;;;;;;;11.18;8.68;;;;;;;2.65;55.52;91626.56;1780133;79;21137;-76
2021/04/06 00:59:19;;;;;;;12.88;8.68;;;;;;;2.64;55.69;91631.75;1816392;78;21366;-77
2021/04/06 01:01:49;;;;;;;12.10;8.23;;;;;;;2.64;56.15;91626.38;1833771;77;21179;-78
2021/04/06 01:04:25;;;;;;;14.07;8.98;;;;;;;2.63;56.38;91626.97;1787148;78;21168;-76
2021/04/06 01:07:08;;;;;;;;;;;;;;;2.59;56.42;91618.13;1789687;79;21371;-73
2021/04/06 01:09:44;;;;;;;12.53;8.55;;;;;;;2.58;56.34;91611.83;1809099;79;20295;-75
2021/04/06 01:12:15;;;;;;;10.65;8.73;;;;;;;2.58;56.40;91609.14;1809082;79;21347;-77
2021/04/06 01:14:45;;;;;;;12.25;9.75;;;;;;;2.58;56.68;91605.11;1809624;79;21639;-76
2021/04/06 01:17:18;;;;;;;12.43;9.20;;;;;;;2.59;56.75;91607.40;1809709;79;21122;-78
2021/04/06 01:19:46;;;;;;;13.65;9.55;;;;;;;2.61;56.86;91609.71;1791036;79;21104;-75
2021/04/06 01:22:16;;;;;;;13.18;8.80;;;;;;;2.61;56.74;91599.73;1801370;79;21118;-75
2021/04/06 01:24:44;;;;;;;15.53;9.25;;;;;;;2.63;56.34;91598.78;1800022;79;21352;-76
2021/04/06 01:27:15;;;;;;;11.53;8.43;;;;;;;2.63;56.87;91591.28;1788325;79;21220;-75
2021/04/06 01:29:54;;;;;;;15.75;8.53;;;;;;;2.61;57.22;91601.08;1799798;79;21149;-75
2021/04/06 01:32:24;;;;;;;13.62;8.80;;;;;;;2.63;56.42;91600.68;1777060;79;21180;-77
2021/04/06 01:34:52;;;;;;;11.75;8.30;;;;;;;2.64;56.89;91604.33;1790380;79;21164;-76
2021/04/06 01:37:25;;;;;;;12.03;8.68;;;;;;;2.64;56.75;91601.65;1779177;79;22136;-78
2021/04/06 01:39:56;;;;;;;10.35;8.48;;;;;;;2.65;56.59;91597.05;1795608;79;21588;-72
2021/04/06 01:42:28;;;;;;;13.85;8.85;;;;;;;2.63;56.81;91609.52;1790893;79;21201;-76
2021/04/06 01:44:56;;;;;;;12.43;8.48;;;;;;;2.63;56.84;91603.36;1772785;79;21615;-75
2021/04/06 01:47:25;;;;;;;11.73;8.60;;;;;;;2.64;57.07;91607.59;1795422;79;21182;-75
2021/04/06 01:49:53;;;;;;;12.47;9.00;;;;;;;2.66;57.00;91593.20;1801166;78;21562;-78
2021/04/06 01:52:23;;;;;;;12.90;8.55;;;;;;;2.66;57.09;91605.27;1828983;78;21151;-76
2021/04/06 01:54:56;;;;;;;9.30;7.75;;;;;;;2.67;57.10;91609.48;1813335;79;21610;-78
2021/04/06 01:57:28;;;;;;;10.82;7.95;;;;;;;2.68;57.19;91600.30;1818804;78;21104;-79
2021/04/06 01:59:56;;;;;;;9.00;7.30;;;;;;;2.66;57.25;91610.06;1810755;79;21163;-80
2021/04/06 02:02:29;;;;;;;10.40;8.18;;;;;;;2.65;57.41;91593.02;1809930;79;21585;-77
2021/04/06 02:04:58;;;;;;;8.88;7.62;;;;;;;2.63;57.49;91589.95;1812631;78;21059;-77
2021/04/06 02:07:29;;;;;;;10.25;8.28;;;;;;;2.60;57.78;91584.80;1811324;79;21092;-78
2021/04/06 02:09:59;;;;;;;10.50;8.10;;;;;;;2.60;57.73;91588.06;1847876;77;21044;-76
2021/04/06 02:12:27;;;;;;;12.98;8.48;;;;;;;2.58;57.46;91584.41;1821222;77;21056;-77
2021/04/06 02:14:57;;;;;;;12.53;7.62;;;;;;;2.56;57.21;91580.02;1844842;77;21351;-77
2021/04/06 02:17:25;;;;;;;10.32;7.55;;;;;;;2.58;57.24;91593.04;1815009;78;21539;-78
2021/04/06 02:19:52;;;;;;;9.78;7.28;;;;;;;2.58;57.33;91575.02;1815067;78;21118;-77
2021/04/06 02:22:21;;;;;;;9.65;7.72;;;;;;;2.58;57.83;91575.59;1824361;78;21185;-74
2021/04/06 02:24:51;;;;;;;13.65;7.87;;;;;;;2.59;57.53;91598.01;1826721;78;21068;-75
2021/04/06 02:27:25;;;;;;;11.00;7.42;;;;;;;2.60;57.53;91587.48;1798412;79;21320;-74
2021/04/06 02:29:56;;;;;;;9.35;7.37;;;;;;;2.61;57.42;91607.79;1826970;78;21132;-75
2021/04/06 02:32:27;;;;;;;12.03;8.65;;;;;;;2.63;57.36;91592.08;1830390;77;21547;-74
2021/04/06 02:34:58;;;;;;;8.65;7.08;;;;;;;2.63;57.49;91593.97;1838470;77;21123;-75
2021/04/06 02:37:27;;;;;;;10.50;7.80;;;;;;;2.62;57.41;91580.38;1821379;78;21702;-76
2021/04/06 02:39:58;;;;;;;11.43;8.25;;;;;;;2.62;57.67;91576.34;1820247;78;21538;-76
2021/04/06 02:42:34;;;;;;;10.65;7.45;;;;;;;2.60;57.64;91597.45;1771965;79;21171;-79
2021/04/06 02:45:21;;;;;;;10.40;7.72;;;;;;;2.61;58.42;91580.95;1803664;79;21155;-77
2021/04/06 02:47:54;;;;;;;9.33;7.30;;;;;;;2.62;57.72;91581.72;1821319;78;21052;-78
2021/04/06 02:50:24;;;;;;;10.68;8.23;;;;;;;2.65;57.61;91588.99;1857191;77;21226;-77
2021/04/06 02:52:52;;;;;;;11.57;8.30;;;;;;;2.67;57.66;91587.45;1848906;77;22142;-75
2021/04/06 02:55:22;;;;;;;10.85;7.62;;;;;;;2.71;57.76;91586.66;1790997;78;21055;-78
2021/04/06 02:57:51;;;;;;;12.95;7.95;;;;;;;2.71;57.60;91604.09;1822013;78;21084;-74
2021/04/06 03:00:30;;;;;;;13.68;8.88;;;;;;;2.71;57.88;91594.16;1811815;78;21159;-78
2021/04/06 03:03:03;;;;;;;10.40;8.35;;;;;;;2.70;57.96;91582.45;1817448;78;21047;-78
2021/04/06 03:05:39;;;;;;;8.85;6.97;;;;;;;2.69;57.95;91591.08;1821867;78;21359;-76
2021/04/06 03:08:06;;;;;;;11.35;7.47;;;;;;;2.68;57.93;91584.19;1834923;77;21066;-76
2021/04/06 03:10:35;;;;;;;11.93;7.62;;;;;;;2.66;58.07;91585.91;1793958;79;21521;-76
2021/04/06 03:13:11;;;;;;;14.95;9.15;;;;;;;2.63;58.30;91592.08;1728461;82;21140;-75
2021/04/06 03:15:42;;;;;;;10.85;8.40;;;;;;;2.61;58.24;91584.22;1734868;79;21156;-78
2021/04/06 03:18:12;;;;;;;12.75;9.18;;;;;;;2.60;58.38;91578.09;1797783;79;21168;-76
2021/04/06 03:20:41;;;;;;;10.18;7.22;;;;;;;2.59;58.54;91573.09;1796868;79;21185;-75
2021/04/06 03:23:08;;;;;;;9.08;7.70;;;;;;;2.59;58.78;91577.88;1823319;78;21555;-77
2021/04/06 03:25:37;;;;;;;11.55;7.80;;;;;;;2.57;58.50;91563.34;1783395;80;21118;-78
2021/04/06 03:28:10;;;;;;;8.93;6.87;;;;;;;2.59;58.36;91567.73;1799737;79;21118;-79
2021/04/06 03:30:38;;;;;;;7.75;6.00;;;;;;;2.61;58.52;91560.83;1781824;79;21516;-79
2021/04/06 03:33:09;;;;;;;8.45;6.70;;;;;;;2.62;58.42;91560.25;1828650;77;21067;-76
2021/04/06 03:35:38;;;;;;;7.80;6.40;;;;;;;2.62;58.36;91572.32;1823509;77;21089;-78
2021/04/06 03:38:09;;;;;;;12.03;6.83;;;;;;;2.64;58.54;91564.66;1798083;78;21108;-75
2021/04/06 03:40:38;;;;;;;13.53;7.85;;;;;;;2.64;58.65;91574.05;1805103;79;21579;-76
2021/04/06 03:43:18;;;;;;;10.58;7.97;;;;;;;2.64;58.73;91557.38;1842088;77;22236;-77
2021/04/06 03:46:03;;;;;;;11.83;7.83;;;;;;;2.66;58.38;91561.75;1801444;79;21156;-77
2021/04/06 03:48:33;;;;;;;9.23;7.05;;;;;;;2.67;58.67;91553.91;1774323;79;21065;-77
2021/04/06 03:51:04;;;;;;;9.98;7.00;;;;;;;2.67;58.54;91549.89;1825213;77;21070;-79
2021/04/06 03:53:40;;;;;;;10.70;7.00;;;;;;;2.70;58.42;91560.40;1813078;78;21131;-77
2021/04/06 03:56:12;;;;;;;8.80;6.70;;;;;;;2.71;58.60;91559.81;1835391;77;21926;-76
2021/04/06 03:58:55;;;;;;;12.15;7.65;;;;;;;2.70;58.73;91566.34;1801626;79;21081;-76
2021/04/06 04:01:13;;;;;;;9.88;7.45;;;;;;;2.70;58.67;91556.95;1787687;78;21151;-77
2021/04/06 04:03:41;;;;;;;8.23;7.28;;;;;;;2.73;58.60;91566.91;1821764;77;21046;-77
2021/04/06 04:06:09;;;;;;;9.13;6.97;;;;;;;2.74;58.65;91559.04;1821601;78;21052;-75
2021/04/06 04:08:37;;;;;;;8.95;6.95;;;;;;;2.76;58.77;91565.55;1821370;78;21200;-78
2021/04/06 04:11:05;;;;;;;9.00;6.83;;;;;;;2.77;58.50;91559.02;1820826;77;21662;-78
2021/04/06 04:13:32;;;;;;;8.65;7.55;;;;;;;2.79;58.58;91555.39;1821400;78;21647;-79
2021/04/06 04:16:01;;;;;;;8.85;7.15;;;;;;;2.79;58.74;91558.66;1806412;78;21149;-80
2021/04/06 04:18:29;;;;;;;9.08;7.40;;;;;;;2.79;58.86;91562.67;1799833;77;21442;-78
2021/04/06 04:20:57;;;;;;;10.25;6.92;;;;;;;2.79;58.79;91572.07;1793668;77;21212;-76
2021/04/06 04:23:26;;;;;;;9.20;7.33;;;;;;;2.78;58.52;91571.86;1813821;78;21075;-79
2021/04/06 04:25:53;;;;;;;8.18;6.87;;;;;;;2.79;58.97;91584.91;1776734;80;21067;-77
2021/04/06 04:28:21;;;;;;;8.95;6.50;;;;;;;2.78;59.11;91594.68;1756749;81;21152;-80
2021/04/06 04:30:53;;;;;;;10.30;8.05;;;;;;;2.78;58.91;91594.68;1852560;77;21037;-79
2021/04/06 04:33:20;;;;;;;9.70;7.15;;;;;;;2.77;59.37;91597.95;1850098;77;22201;-79
2021/04/06 04:35:48;;;;;;;13.40;7.22;;;;;;;2.75;59.67;91600.84;1815200;78;21081;-80
2021/04/06 04:38:16;;;;;;;7.22;6.00;;;;;;;2.73;59.13;91593.17;1825753;78;21112;-80
2021/04/06 04:43:13;;;;;;;9.50;7.22;;;;;;;2.71;59.95;91604.89;1786248;79;21570;-80
2021/04/06 04:45:41;;;;;;;9.18;7.00;;;;;;;2.68;59.57;91601.05;1805160;78;21351;-81
2021/04/06 04:48:09;;;;;;;9.93;7.15;;;;;;;2.68;59.50;91599.71;1804822;79;21066;-81
2021/04/06 04:50:37;;;;;;;8.95;6.78;;;;;;;2.67;59.37;91598.75;1818050;78;21481;-80
2021/04/06 04:53:04;;;;;;;8.40;6.80;;;;;;;2.69;59.39;91607.19;1843115;77;21135;-81
2021/04/06 04:55:32;;;;;;;9.05;6.70;;;;;;;2.70;59.61;91609.29;1802570;79;21124;-80
2021/04/06 04:57:59;;;;;;;7.92;6.62;;;;;;;2.71;59.55;91608.91;1835374;78;21128;-79
2021/04/06 05:00:27;;;;;;;8.20;6.10;;;;;;;2.72;59.42;91611.78;1821227;78;21138;-80
2021/04/06 05:02:55;;;;;;;8.18;6.67;;;;;;;2.74;59.59;91611.38;1814490;78;21114;-80
2021/04/06 05:05:22;;;;;;;7.80;6.47;;;;;;;2.73;59.59;91608.52;1828410;78;21072;-81
2021/04/06 05:07:50;;;;;;;9.45;7.17;;;;;;;2.72;59.91;91612.36;1850544;77;21040;-79
2021/04/06 05:10:18;;;;;;;8.48;6.87;;;;;;;2.74;59.99;91610.03;1815882;77;21363;-79
2021/04/06 05:12:47;;;;;;;9.70;5.95;;;;;;;2.73;60.13;91610.62;1848863;77;21112;-79
2021/04/06 05:15:14;;;;;;;7.75;5.75;;;;;;;2.74;60.58;91616.16;1849135;77;21111;-78
2021/04/06 05:17:42;;;;;;;10.50;6.70;;;;;;;2.74;60.73;91626.14;1818886;78;21149;-80
2021/04/06 05:20:12;;;;;;;11.28;6.90;;;;;;;2.72;60.70;91625.78;1810140;79;21147;-78
2021/04/06 05:22:40;;;;;;;7.05;6.35;;;;;;;2.73;60.91;91632.09;1842217;77;21345;-78
2021/04/06 05:25:08;;;;;;;13.85;8.68;;;;;;;2.74;61.00;91640.32;1804744;79;21076;-78
2021/04/06 05:27:35;;;;;;;10.08;7.42;;;;;;;2.74;61.41;91648.37;1803053;79;21100;-77
2021/04/06 05:30:04;;;;;;;8.95;7.08;;;;;;;2.73;61.55;91642.83;1815275;77;21118;-78
2021/04/06 05:32:32;;;;;;;11.35;7.30;;;;;;;2.72;61.81;91640.55;1869850;76;21463;-78
2021/04/06 05:34:59;;;;;;;19.40;11.03;;;;;;;2.72;62.35;91638.63;1805921;79;21419;-77
2021/04/06 05:37:27;;;;;;;15.10;8.98;;;;;;;2.71;62.45;91630.94;1742698;78;21156;-78
2021/04/06 05:39:56;;;;;;;13.95;9.38;;;;;;;2.71;62.71;91633.63;1773413;79;21085;-77
2021/04/06 05:42:23;;;;;;;15.20;8.88;;;;;;;2.70;62.76;91646.28;1815002;78;21119;-77
2021/04/06 05:44:52;;;;;;;16.87;11.15;;;;;;;2.70;62.41;91642.25;1810232;79;21163;-79
2021/04/06 05:47:41;;;;;;;16.60;10.48;;;;;;;2.70;62.49;91645.52;1774999;80;21343;-79
2021/04/06 05:50:09;;;;;;;16.93;9.25;;;;;;;2.69;62.28;91648.78;1791921;80;21144;-80
2021/04/06 05:52:36;;;;;;;17.00;10.00;;;;;;;2.73;61.80;91637.45;1768805;78;21055;-80
2021/04/06 05:55:06;;;;;;;15.20;10.30;;;;;;;2.76;62.24;91640.71;1807413;79;21175;-79
2021/04/06 05:57:34;;;;;;;12.50;8.88;;;;;;;2.78;62.53;91645.09;1769574;80;21089;-78
2021/04/06 06:00:07;;;;;;;12.07;8.63;;;;;;;2.83;62.05;91639.92;1775887;79;21410;-79
2021/04/06 06:02:37;;;;;;;10.30;7.50;;;;;;;2.87;61.67;91647.39;1780008;78;21700;-78
2021/04/06 06:05:06;;;;;;;7.80;6.55;;;;;;;2.90;61.10;91643.34;1789745;78;21115;-79
2021/04/06 06:07:34;;;;;;;9.75;7.20;;;;;;;2.95;60.68;91651.57;1785021;79;21244;-79
2021/04/06 06:10:31;;;;;;;8.65;6.87;;;;;;;3.00;60.92;91654.42;1776966;80;21626;-78
2021/04/06 06:13:18;;;;;;;13.88;9.45;;;;;;;3.05;60.69;91648.66;1789398;79;21632;-79
2021/04/06 06:16:14;;;;;;;14.93;10.32;;;;;;;3.12;61.29;91656.66;1847734;77;21174;-79
2021/04/06 06:19:10;;;;;;;15.38;10.20;;;;;;;3.14;61.77;91644.38;1805280;77;21140;-79
2021/04/06 06:21:52;;;;;;;13.65;9.20;;;;;;;3.16;61.59;91655.52;1736900;81;21171;-79
2021/04/06 06:24:33;;;;;;;12.53;8.60;;;;;;;3.20;61.65;91641.28;1807135;78;21056;-78
2021/04/06 06:27:01;;;;;;;14.07;8.68;;;;;;;3.23;61.47;91645.88;1798749;79;21338;-78
2021/04/06 06:29:34;;;;;;;9.70;6.65;;;;;;;3.27;61.76;91646.62;1780459;79;21048;-79
2021/04/06 06:32:01;;;;;;;8.93;6.97;;;;;;;3.29;62.07;91643.73;1807032;79;21160;-78
2021/04/06 06:34:35;;;;;;;8.58;6.65;;;;;;;3.26;61.87;91641.83;1809802;79;21036;-78
2021/04/06 06:37:17;;;;;;;7.70;5.97;;;;;;;3.27;61.75;91654.13;1817013;79;21165;-78
2021/04/06 06:39:58;;;;;;;8.60;6.12;;;;;;;3.25;61.49;91648.95;1844420;77;21368;-78
2021/04/06 06:42:35;;;;;;;7.40;6.15;;;;;;;3.27;61.40;91645.27;1808999;79;22454;-78
2021/04/06 06:45:06;;;;;;;8.30;6.47;;;;;;;3.29;61.06;91649.69;1795886;78;21152;-78
2021/04/06 06:47:33;;;;;;;9.10;6.67;;;;;;;3.30;60.45;91647.94;1821818;78;21092;-78
2021/04/06 06:50:11;;;;;;;15.80;10.28;;;;;;;3.34;60.36;91653.30;1821962;78;21590;-78
2021/04/06 06:52:39;;;;;;;26.80;13.10;;;;;;;3.38;60.85;91654.05;1819935;78;22100;-78
2021/04/06 06:55:25;;;;;;;24.40;13.43;;;;;;;3.42;61.98;91657.47;1787894;79;21091;-78
2021/04/06 06:58:02;;;;;;;;;;;;;;;3.44;62.75;91661.89;1842890;77;21542;-79
2021/04/06 07:00:30;;;;;;;18.85;10.80;;;;;;;3.43;63.28;91674.38;1833036;77;20465;-80
2021/04/06 07:02:57;;;;;;;16.97;10.08;;;;;;;3.32;63.90;91678.46;1859267;77;21213;-78
2021/04/06 07:05:27;;;;;;;31.12;14.60;;;;;;;3.15;64.61;91680.06;1841336;78;21354;-82
2021/04/06 07:08:04;;;;;;;26.35;13.72;;;;;;;2.98;65.50;91684.94;1821892;78;21186;-80
2021/04/06 07:10:43;;;;;;;20.82;9.75;;;;;;;2.76;66.34;91687.69;1810747;77;21178;-79
2021/04/06 07:13:21;;;;;;;18.05;10.30;;;;;;;2.59;67.21;91689.82;1813235;79;21175;-80
2021/04/06 07:15:51;;;;;;;20.95;9.78;;;;;;;2.39;68.05;91696.19;1816347;78;21039;-78
2021/04/06 07:18:20;;;;;;;14.23;8.05;;;;;;;2.22;69.02;91699.09;1870809;76;21351;-78
2021/04/06 07:20:55;;;;;;;12.98;7.42;;;;;;;2.04;69.35;91698.33;1846111;77;21116;-79
2021/04/06 07:23:40;;;;;;;11.75;6.58;;;;;;;1.92;70.06;91704.25;1853339;77;21102;-78
2021/04/06 07:26:13;;;;;;;12.25;6.47;;;;;;;1.84;70.55;91704.61;1834755;78;21144;-79
2021/04/06 07:28:41;;;;;;;12.30;6.75;;;;;;;1.80;71.20;91699.25;1777128;79;21163;-77
2021/04/06 07:31:10;;;;;;;14.63;7.10;;;;;;;1.72;71.61;91708.43;1848739;77;21179;-78
2021/04/06 07:33:39;;;;;;;10.63;6.80;;;;;;;1.66;71.85;91718.01;1848917;77;21078;-77
2021/04/06 07:36:10;;;;;;;8.35;5.60;;;;;;;1.59;72.07;91726.80;1805321;79;21220;-79
2021/04/06 07:38:41;;;;;;;10.18;6.45;;;;;;;1.50;72.36;91720.25;1831913;78;21066;-78
2021/04/06 07:41:09;;;;;;;10.60;6.17;;;;;;;1.42;72.54;91730.19;1787883;79;21460;-81
2021/04/06 07:43:37;;;;;;;11.12;6.30;;;;;;;1.36;72.77;91727.70;1844956;77;21363;-79
2021/04/06 07:46:05;;;;;;;9.23;5.72;;;;;;;1.29;73.08;91725.75;1779397;78;21155;-80
2021/04/06 07:48:50;;;;;;;6.22;5.15;;;;;;;1.23;73.13;91721.90;1805015;79;21168;-80
2021/04/06 07:51:25;;;;;;;7.15;4.45;;;;;;;1.20;73.17;91729.34;1855504;77;21040;-78
2021/04/06 07:54:02;;;;;;;4.85;3.80;;;;;;;1.15;73.31;91729.14;1813669;78;23427;-79
2021/04/06 07:56:51;;;;;;;3.90;3.02;;;;;;;1.07;73.01;91740.97;1770083;78;21475;-81
2021/04/06 07:59:24;;;;;;;3.70;3.25;;;;;;;0.92;72.47;91741.47;1800673;79;21057;-81
2021/04/06 08:01:57;;;;;;;3.52;3.22;;;;;;;0.76;72.94;91741.59;1812899;79;21612;-80
2021/04/06 08:04:49;;;;;;;2.87;2.60;;;;;;;0.62;73.16;91738.25;1824793;78;21119;-82
2021/04/06 08:07:34;;;;;;;3.27;2.87;;;;;;;0.48;73.03;91742.36;1804738;79;21124;-79
2021/04/06 08:10:17;;;;;;;2.80;2.60;;;;;;;0.36;73.27;91737.33;1811579;79;21206;-81
2021/04/06 08:12:51;;;;;;;5.05;2.60;;;;;;;0.31;73.45;91739.59;1830186;77;21072;-79
2021/04/06 08:15:22;;;;;;;2.90;2.20;;;;;;;0.27;73.51;91741.47;1801704;78;21174;-81
2021/04/06 08:17:54;;;;;;;4.55;2.30;;;;;;;0.19;73.30;91737.41;1839547;78;21150;-81
2021/04/06 08:20:38;;;;;;;2.62;1.85;;;;;;;0.15;73.45;91740.63;1818796;77;21139;-81
2021/04/06 08:23:16;;;;;;;6.58;2.95;;;;;;;0.09;73.78;91738.09;1804516;78;21365;-81
2021/04/06 08:25:47;;;;;;;2.58;2.30;;;;;;;0.08;74.02;91741.91;1794081;78;21175;-79
2021/04/06 08:28:29;;;;;;;3.17;2.22;;;;;;;0.08;74.17;91747.82;1821076;78;21464;-81
2021/04/06 08:31:22;;;;;;;2.58;2.25;;;;;;;0.02;74.12;91742.61;1785744;79;21475;-81
2021/04/06 08:33:50;;;;;;;4.95;2.33;;;;;;;-0.02;74.36;91739.91;1817006;78;21497;-81
2021/04/06 08:36:25;;;;;;;3.37;2.70;;;;;;;-0.05;74.58;91746.75;1798349;77;21319;-80
2021/04/06 08:38:55;;;;;;;3.17;2.25;;;;;;;-0.05;74.71;91741.40;1797986;79;21136;-82
2021/04/06 08:41:28;;;;;;;5.45;3.05;;;;;;;-0.03;75.02;91738.37;1787168;78;21588;-80
2021/04/06 08:43:57;;;;;;;5.40;2.98;;;;;;;-0.07;75.13;91742.36;1821123;78;21120;-81
2021/04/06 08:46:50;;;;;;;2.58;2.20;;;;;;;-0.08;75.25;91734.69;1819100;78;21116;-82
2021/04/06 08:49:25;;;;;;;2.47;2.00;;;;;;;-0.13;75.20;91740.38;1817384;78;21257;-80
2021/04/06 08:52:00;;;;;;;4.65;2.37;;;;;;;-0.20;75.17;91742.98;1836063;78;21591;-78
2021/04/06 08:54:32;;;;;;;3.90;2.33;;;;;;;-0.27;75.48;91740.44;1791968;78;21062;-79
2021/04/06 08:57:06;;;;;;;3.52;2.55;;;;;;;-0.26;75.63;91733.98;1830131;78;21602;-78
2021/04/06 08:59:42;;;;;;;2.62;2.12;;;;;;;-0.26;75.67;91742.57;1811074;78;21190;-81
2021/04/06 09:02:14;;;;;;;3.25;2.70;;;;;;;-0.23;75.80;91741.81;1863006;76;22246;-79
2021/04/06 09:04:48;;;;;;;3.62;3.20;;;;;;;-0.18;75.70;91738.83;1821913;77;21168;-79
2021/04/06 09:07:28;;;;;;;2.40;2.20;;;;;;;-0.16;75.55;91747.80;1805879;79;21143;-80
2021/04/06 09:10:03;;;;;;;2.90;2.00;;;;;;;-0.16;75.57;91741.11;1842459;77;21176;-80
2021/04/06 09:12:31;;;;;;;4.33;2.70;;;;;;;-0.18;75.65;91738.06;1806495;79;21056;-80
2021/04/06 09:14:58;;;;;;;4.35;2.77;;;;;;;-0.22;75.85;91735.36;1842147;77;21362;-80
2021/04/06 09:17:31;;;;;;;4.20;2.90;;;;;;;-0.21;75.96;91726.77;1780526;79;21543;-82
2021/04/06 09:20:00;;;;;;;3.47;2.50;;;;;;;-0.21;75.24;91730.20;1834692;77;21163;-80
2021/04/06 09:22:27;;;;;;;3.55;2.80;;;;;;;-0.28;75.38;91724.22;1804800;79;21623;-82
2021/04/06 09:24:55;;;;;;;2.95;2.42;;;;;;;-0.33;75.37;91724.57;1748138;81;21161;-82
2021/04/06 09:27:22;;;;;;;3.42;2.15;;;;;;;-0.38;75.07;91723.55;1771514;81;21112;-79
2021/04/06 09:29:50;;;;;;;3.60;2.20;;;;;;;-0.39;75.28;91721.26;1771750;81;21088;-79
2021/04/06 09:32:19;;;;;;;2.05;1.80;;;;;;;-0.37;75.41;91727.02;1768887;80;21477;-80
2021/04/06 09:34:49;;;;;;;2.72;1.90;;;;;;;-0.39;74.84;91735.38;1803487;79;21041;-80
2021/04/06 09:37:19;;;;;;;1.70;1.60;;;;;;;-0.41;74.90;91730.98;1793977;77;21052;-82
2021/04/06 09:39:58;;;;;;;2.17;1.55;;;;;;;-0.42;74.26;91734.00;1832156;78;21420;-85
2021/04/06 09:42:26;;;;;;;2.17;1.77;;;;;;;-0.48;73.46;91728.24;1777628;79;21139;-81
2021/04/06 09:44:54;;;;;;;2.62;1.87;;;;;;;-0.58;74.17;91727.56;1849748;77;21037;-82
2021/04/06 09:47:22;;;;;;;1.95;1.80;;;;;;;-0.58;74.14;91726.98;1769802;79;21147;-82
2021/04/06 09:49:52;;;;;;;1.90;1.70;;;;;;;-0.57;74.09;91731.76;1811540;79;21156;-80
2021/04/06 09:52:23;;;;;;;2.10;1.90;;;;;;;-0.55;73.78;91733.51;1812673;79;21422;-80
2021/04/06 09:55:01;;;;;;;1.77;1.60;;;;;;;-0.53;73.77;91736.02;1806816;78;21796;-80
2021/04/06 09:57:31;;;;;;;2.17;1.60;;;;;;;-0.55;73.33;91723.59;1808096;79;21074;-80
2021/04/06 09:59:58;;;;;;;2.15;1.95;;;;;;;-0.54;73.08;91727.03;1800683;79;21104;-81
2021/04/06 10:02:28;;;;;;;1.75;1.42;;;;;;;-0.53;73.53;91719.21;1811831;79;21099;-82
2021/04/06 10:04:56;;;;;;;1.52;1.40;;;;;;;-0.48;72.62;91716.80;1820221;77;22244;-79
2021/04/06 10:07:30;;;;;;;4.47;1.47;;;;;;;-0.45;72.97;91714.70;1802946;79;21554;-80
2021/04/06 10:10:05;;;;;;;3.00;1.72;;;;;;;-0.43;72.25;91713.78;1837596;78;21228;-81
2021/04/06 10:12:34;;;;;;;2.62;1.85;;;;;;;-0.44;72.13;91708.25;1844325;77;21080;-82
2021/04/06 10:15:01;;;;;;;1.72;1.22;;;;;;;-0.47;71.78;91703.64;1854785;76;21071;-79
2021/04/06 10:17:39;;;;;;;1.65;1.52;;;;;;;-0.53;71.33;91687.17;1807267;77;21460;-78
2021/04/06 10:20:18;;;;;;;2.22;1.77;;;;;;;-0.53;71.81;91670.61;1797081;79;21199;-79
2021/04/06 10:22:58;;;;;;;1.65;1.20;;;;;;;-0.45;72.02;91670.64;1804458;78;21137;-80
2021/04/06 10:25:34;;;;;;;2.70;1.50;;;;;;;-0.33;71.85;91680.50;1772911;80;21179;-78
2021/04/06 10:28:06;;;;;;;3.50;1.90;;;;;;;-0.22;72.07;91667.80;1801866;78;21256;-81
2021/04/06 10:30:41;;;;;;;2.17;1.98;;;;;;;-0.19;70.83;91658.45;1749058;80;21590;-81
2021/04/06 10:33:15;;;;;;;1.75;1.65;;;;;;;-0.27;71.12;91666.22;1805358;79;21092;-82
2021/04/06 10:35:49;;;;;;;2.30;1.82;;;;;;;-0.25;71.73;91665.30;1759862;79;21150;-83
2021/04/06 10:38:25;;;;;;;1.47;1.37;;;;;;;-0.20;71.81;91668.95;1802222;78;21051;-81
2021/04/06 10:41:07;;;;;;;2.20;1.50;;;;;;;-0.16;71.10;91674.33;1794793;79;21159;-83
2021/04/06 10:43:37;;;;;;;2.75;1.40;;;;;;;;;;1809776;79;21360;-80
2021/04/06 10:46:12;;;;;;;4.17;2.22;;;;;;;-0.23;71.19;91688.95;1804055;77;21542;-80
2021/04/06 10:48:44;;;;;;;2.70;1.95;;;;;;;-0.29;71.76;91691.98;1828176;78;21037;-80
2021/04/06 10:51:19;;;;;;;1.85;1.45;;;;;;;-0.29;71.86;91692.55;1747698;79;21212;-79
2021/04/06 10:53:56;;;;;;;2.47;1.80;;;;;;;-0.33;71.62;91689.84;1762874;81;21143;-80
2021/04/06 10:56:30;;;;;;;4.55;2.77;;;;;;;-0.40;71.47;91690.36;1798689;76;21443;-81
2021/04/06 10:59:07;;;;;;;4.35;2.85;;;;;;;-0.51;71.97;91700.94;1829419;77;21075;-80
2021/04/06 11:01:49;;;;;;;5.92;3.15;;;;;;;-0.56;72.39;91708.72;1841441;77;21159;-81
2021/04/06 11:04:19;;;;;;;3.37;2.70;;;;;;;-0.59;72.99;91703.34;1843116;77;21740;-80
2021/04/06 11:06:56;;;;;;;2.60;2.08;;;;;;;-0.61;73.75;91709.03;1821882;78;21163;-80
2021/04/06 11:09:49;;;;;;;4.33;2.22;;;;;;;-0.67;74.55;91712.42;1842325;77;21359;-80
2021/04/06 11:12:17;;;;;;;2.30;2.00;;;;;;;-0.76;75.62;91712.12;1807222;79;21173;-81
2021/04/06 11:14:45;;;;;;;4.17;2.10;;;;;;;-0.85;76.58;91706.89;1791726;79;21530;-81
2021/04/06 11:17:13;;;;;;;3.45;2.25;;;;;;;-0.93;76.96;91713.28;1795739;79;21129;-81
2021/04/06 11:19:46;;;;;;;4.70;3.00;;;;;;;-0.93;77.89;91708.71;1797538;79;21155;-81
2021/04/06 11:22:17;;;;;;;17.12;6.37;;;;;;;-0.92;78.41;91710.81;1770782;80;21148;-79
2021/04/06 11:24:48;;;;;;;8.10;4.15;;;;;;;-0.87;78.83;91705.90;1755690;81;21522;-80
2021/04/06 11:27:19;;;;;;;11.12;5.40;;;;;;;-0.79;78.90;91706.20;1833942;78;21029;-79
2021/04/06 11:29:47;;;;;;;26.52;12.55;;;;;;;-0.74;79.34;91693.85;1789772;79;21054;-80
2021/04/06 11:32:19;;;;;;;14.33;6.30;;;;;;;-0.68;79.64;91694.84;1806300;79;21093;-80
2021/04/06 11:34:47;;;;;;;21.02;11.63;;;;;;;-0.66;79.85;91685.92;1726079;83;21368;-79
2021/04/06 11:37:14;;;;;;;16.80;8.93;;;;;;;-0.62;79.75;91685.37;1782003;80;21158;-79
2021/04/06 11:39:45;;;;;;;59.83;32.98;;;;;;;-0.61;79.81;91681.57;1748968;81;21178;-80
2021/04/06 11:42:15;;;;;;;78.22;44.93;;;;;;;-0.58;80.11;91679.51;1832297;78;21100;-79
2021/04/06 11:44:44;;;;;;;65.50;31.07;;;;;;;-0.56;80.17;91679.92;1816680;78;21125;-81
2021/04/06 11:47:12;;;;;;;17.02;9.63;;;;;;;-0.54;80.62;91678.40;1828001;77;21368;-80
2021/04/06 11:49:40;;;;;;;34.83;17.02;;;;;;;-0.53;80.31;91678.63;1792070;79;21100;-79
2021/04/06 11:52:08;;;;;;;14.47;8.93;;;;;;;-0.51;80.24;91675.56;1775651;80;21072;-79
2021/04/06 11:54:41;;;;;;;41.60;18.67;;;;;;;-0.46;80.35;91671.79;1805850;78;21080;-80
2021/04/06 11:57:08;;;;;;;31.50;13.08;;;;;;;-0.40;80.16;91674.33;1817047;77;21069;-80
2021/04/06 11:59:36;;;;;;;37.60;20.20;;;;;;;-0.40;79.72;91671.66;1771110;80;21381;-79
2021/04/06 12:02:04;;;;;;;27.22;14.00;;;;;;;-0.39;79.76;91669.95;1779218;80;21734;-80